sensor_id;sensor_type;location;lat;lon;timestamp;P1;durP1;ratioP1;P2;durP2;ratioP2
37341;SDS011;58643;49.052;8.518;2023-02-03T00:00:06;8.05;;;2.63;;
37341;SDS011;58643;49.052;8.518;2023-02-03T00:02:33;5.85;;;2.08;;
37341;SDS011;58643;49.052;8.518;2023-02-03T00:04:58;7.85;;;2.25;;
37341;SDS011;58643;49.052;8.518;2023-02-03T00:07:24;9.52;;;2.30;;
37341;SDS011;58643;49.052;8.518;2023-02-03T00:09:50;6.45;;;2.38;;
37341;SDS011;58643;49.052;8.518;2023-02-03T00:12:16;6.07;;;1.58;;
37341;SDS011;58643;49.052;8.518;2023-02-03T00:14:42;3.00;;;1.73;;
37341;SDS011;58643;49.052;8.518;2023-02-03T00:17:07;5.95;;;1.73;;
37341;SDS011;58643;49.052;8.518;2023-02-03T00:19:33;7.57;;;1.92;;
37341;SDS011;58643;49.052;8.518;2023-02-03T00:21:58;3.53;;;2.03;;
37341;SDS011;58643;49.052;8.518;2023-02-03T00:24:24;3.88;;;1.52;;
37341;SDS011;58643;49.052;8.518;2023-02-03T00:26:50;5.13;;;1.60;;
37341;SDS011;58643;49.052;8.518;2023-02-03T00:29:16;7.72;;;1.83;;
37341;SDS011;58643;49.052;8.518;2023-02-03T00:31:42;6.30;;;1.90;;
37341;SDS011;58643;49.052;8.518;2023-02-03T00:34:08;2.20;;;1.58;;
37341;SDS011;58643;49.052;8.518;2023-02-03T00:36:34;3.53;;;1.88;;
37341;SDS011;58643;49.052;8.518;2023-02-03T00:39:00;7.32;;;2.30;;
37341;SDS011;58643;49.052;8.518;2023-02-03T00:41:27;4.88;;;1.80;;
37341;SDS011;58643;49.052;8.518;2023-02-03T00:43:55;5.82;;;2.33;;
37341;SDS011;58643;49.052;8.518;2023-02-03T00:46:21;6.43;;;2.00;;
37341;SDS011;58643;49.052;8.518;2023-02-03T00:48:49;4.75;;;2.00;;
37341;SDS011;58643;49.052;8.518;2023-02-03T00:51:15;7.55;;;2.72;;
37341;SDS011;58643;49.052;8.518;2023-02-03T00:53:41;4.75;;;1.40;;
37341;SDS011;58643;49.052;8.518;2023-02-03T00:56:06;4.78;;;2.10;;
37341;SDS011;58643;49.052;8.518;2023-02-03T00:58:37;5.00;;;2.00;;
37341;SDS011;58643;49.052;8.518;2023-02-03T01:01:03;6.57;;;2.53;;
37341;SDS011;58643;49.052;8.518;2023-02-03T01:03:29;7.63;;;2.13;;
37341;SDS011;58643;49.052;8.518;2023-02-03T01:05:55;8.35;;;2.10;;
37341;SDS011;58643;49.052;8.518;2023-02-03T01:08:20;4.43;;;2.30;;
37341;SDS011;58643;49.052;8.518;2023-02-03T01:10:47;6.95;;;1.88;;
37341;SDS011;58643;49.052;8.518;2023-02-03T01:13:13;4.60;;;1.92;;
37341;SDS011;58643;49.052;8.518;2023-02-03T01:15:46;4.47;;;1.88;;
37341;SDS011;58643;49.052;8.518;2023-02-03T01:18:12;5.90;;;1.77;;
37341;SDS011;58643;49.052;8.518;2023-02-03T01:20:38;4.85;;;1.33;;
37341;SDS011;58643;49.052;8.518;2023-02-03T01:23:04;3.75;;;2.00;;
37341;SDS011;58643;49.052;8.518;2023-02-03T01:25:29;3.83;;;1.98;;
37341;SDS011;58643;49.052;8.518;2023-02-03T01:27:55;4.13;;;2.10;;
37341;SDS011;58643;49.052;8.518;2023-02-03T01:30:20;4.10;;;1.80;;
37341;SDS011;58643;49.052;8.518;2023-02-03T01:32:47;5.25;;;1.98;;
37341;SDS011;58643;49.052;8.518;2023-02-03T01:35:12;3.83;;;1.92;;
37341;SDS011;58643;49.052;8.518;2023-02-03T01:37:38;6.82;;;2.22;;
37341;SDS011;58643;49.052;8.518;2023-02-03T01:40:04;7.13;;;2.38;;
37341;SDS011;58643;49.052;8.518;2023-02-03T01:42:31;4.68;;;1.73;;
37341;SDS011;58643;49.052;8.518;2023-02-03T01:44:57;4.45;;;1.45;;
37341;SDS011;58643;49.052;8.518;2023-02-03T01:50:04;3.63;;;2.00;;
37341;SDS011;58643;49.052;8.518;2023-02-03T01:52:35;7.30;;;2.67;;
37341;SDS011;58643;49.052;8.518;2023-02-03T01:55:02;4.07;;;1.70;;
37341;SDS011;58643;49.052;8.518;2023-02-03T01:57:33;6.13;;;2.05;;
37341;SDS011;58643;49.052;8.518;2023-02-03T02:00:20;5.97;;;2.22;;
37341;SDS011;58643;49.052;8.518;2023-02-03T02:02:46;6.95;;;2.25;;
37341;SDS011;58643;49.052;8.518;2023-02-03T02:05:27;5.47;;;2.00;;
37341;SDS011;58643;49.052;8.518;2023-02-03T02:07:54;7.63;;;2.60;;
37341;SDS011;58643;49.052;8.518;2023-02-03T02:10:22;8.60;;;2.67;;
37341;SDS011;58643;49.052;8.518;2023-02-03T02:12:47;7.68;;;2.13;;
37341;SDS011;58643;49.052;8.518;2023-02-03T02:15:14;4.78;;;2.50;;
37341;SDS011;58643;49.052;8.518;2023-02-03T02:17:51;5.63;;;2.13;;
37341;SDS011;58643;49.052;8.518;2023-02-03T02:39:58;2.45;;;1.48;;
37341;SDS011;58643;49.052;8.518;2023-02-03T02:44:58;6.15;;;2.13;;
37341;SDS011;58643;49.052;8.518;2023-02-03T02:47:40;4.20;;;1.75;;
37341;SDS011;58643;49.052;8.518;2023-02-03T02:50:13;4.43;;;1.75;;
37341;SDS011;58643;49.052;8.518;2023-02-03T02:52:48;4.60;;;1.73;;
37341;SDS011;58643;49.052;8.518;2023-02-03T02:55:16;6.38;;;1.80;;
37341;SDS011;58643;49.052;8.518;2023-02-03T02:57:48;3.33;;;1.13;;
37341;SDS011;58643;49.052;8.518;2023-02-03T03:00:17;4.45;;;1.50;;
37341;SDS011;58643;49.052;8.518;2023-02-03T03:02:43;4.63;;;1.65;;
37341;SDS011;58643;49.052;8.518;2023-02-03T03:05:09;4.68;;;1.60;;
37341;SDS011;58643;49.052;8.518;2023-02-03T03:07:42;5.90;;;1.75;;
37341;SDS011;58643;49.052;8.518;2023-02-03T03:10:12;4.35;;;1.70;;
37341;SDS011;58643;49.052;8.518;2023-02-03T03:12:46;4.40;;;1.83;;
37341;SDS011;58643;49.052;8.518;2023-02-03T03:15:19;3.63;;;1.80;;
37341;SDS011;58643;49.052;8.518;2023-02-03T03:17:51;3.25;;;1.42;;
37341;SDS011;58643;49.052;8.518;2023-02-03T03:20:23;7.75;;;2.17;;
37341;SDS011;58643;49.052;8.518;2023-02-03T03:22:52;3.75;;;1.95;;
37341;SDS011;58643;49.052;8.518;2023-02-03T03:25:38;4.82;;;1.90;;
37341;SDS011;58643;49.052;8.518;2023-02-03T03:28:14;2.53;;;1.60;;
37341;SDS011;58643;49.052;8.518;2023-02-03T03:30:44;5.28;;;1.90;;
37341;SDS011;58643;49.052;8.518;2023-02-03T03:33:10;5.35;;;2.22;;
37341;SDS011;58643;49.052;8.518;2023-02-03T03:35:41;4.75;;;2.08;;
37341;SDS011;58643;49.052;8.518;2023-02-03T03:38:15;3.83;;;2.00;;
37341;SDS011;58643;49.052;8.518;2023-02-03T03:40:48;4.82;;;3.25;;
37341;SDS011;58643;49.052;8.518;2023-02-03T03:43:19;5.07;;;1.85;;
37341;SDS011;58643;49.052;8.518;2023-02-03T03:48:31;4.18;;;1.85;;
37341;SDS011;58643;49.052;8.518;2023-02-03T03:51:03;1.85;;;1.40;;
37341;SDS011;58643;49.052;8.518;2023-02-03T03:53:36;7.60;;;2.17;;
37341;SDS011;58643;49.052;8.518;2023-02-03T03:56:04;4.13;;;1.80;;
37341;SDS011;58643;49.052;8.518;2023-02-03T03:58:33;2.40;;;1.40;;
37341;SDS011;58643;49.052;8.518;2023-02-03T04:01:02;2.23;;;1.40;;
37341;SDS011;58643;49.052;8.518;2023-02-03T04:03:40;2.33;;;1.45;;
37341;SDS011;58643;49.052;8.518;2023-02-03T04:06:13;4.57;;;1.80;;
37341;SDS011;58643;49.052;8.518;2023-02-03T04:08:39;3.15;;;1.45;;
37341;SDS011;58643;49.052;8.518;2023-02-03T04:11:05;3.67;;;1.77;;
37341;SDS011;58643;49.052;8.518;2023-02-03T04:13:31;5.35;;;1.90;;
37341;SDS011;58643;49.052;8.518;2023-02-03T04:15:56;3.33;;;1.52;;
37341;SDS011;58643;49.052;8.518;2023-02-03T04:18:22;3.13;;;1.60;;
37341;SDS011;58643;49.052;8.518;2023-02-03T04:20:48;3.20;;;1.45;;
37341;SDS011;58643;49.052;8.518;2023-02-03T04:23:13;2.90;;;1.65;;
37341;SDS011;58643;49.052;8.518;2023-02-03T04:25:39;4.93;;;1.60;;
37341;SDS011;58643;49.052;8.518;2023-02-03T04:28:04;3.50;;;1.98;;
37341;SDS011;58643;49.052;8.518;2023-02-03T04:30:30;4.15;;;1.83;;
37341;SDS011;58643;49.052;8.518;2023-02-03T04:32:56;4.03;;;1.73;;
37341;SDS011;58643;49.052;8.518;2023-02-03T04:35:22;2.85;;;1.75;;
37341;SDS011;58643;49.052;8.518;2023-02-03T04:37:48;4.05;;;2.10;;
37341;SDS011;58643;49.052;8.518;2023-02-03T04:40:13;4.57;;;2.13;;
37341;SDS011;58643;49.052;8.518;2023-02-03T04:42:39;5.07;;;2.10;;
37341;SDS011;58643;49.052;8.518;2023-02-03T04:45:05;4.65;;;2.45;;
37341;SDS011;58643;49.052;8.518;2023-02-03T04:47:32;2.70;;;1.80;;
37341;SDS011;58643;49.052;8.518;2023-02-03T04:49:58;5.13;;;1.85;;
37341;SDS011;58643;49.052;8.518;2023-02-03T04:52:24;4.80;;;2.00;;
37341;SDS011;58643;49.052;8.518;2023-02-03T04:54:50;2.72;;;1.63;;
37341;SDS011;58643;49.052;8.518;2023-02-03T04:57:15;3.83;;;2.00;;
37341;SDS011;58643;49.052;8.518;2023-02-03T04:59:41;4.38;;;1.98;;
37341;SDS011;58643;49.052;8.518;2023-02-03T05:02:07;3.95;;;1.60;;
37341;SDS011;58643;49.052;8.518;2023-02-03T05:04:32;3.38;;;1.67;;
37341;SDS011;58643;49.052;8.518;2023-02-03T05:06:58;4.55;;;1.98;;
37341;SDS011;58643;49.052;8.518;2023-02-03T05:09:24;4.43;;;2.10;;
37341;SDS011;58643;49.052;8.518;2023-02-03T05:11:50;4.72;;;1.60;;
37341;SDS011;58643;49.052;8.518;2023-02-03T05:14:16;3.15;;;1.65;;
37341;SDS011;58643;49.052;8.518;2023-02-03T05:16:42;7.32;;;1.83;;
37341;SDS011;58643;49.052;8.518;2023-02-03T05:19:07;3.13;;;1.27;;
37341;SDS011;58643;49.052;8.518;2023-02-03T05:21:33;2.33;;;1.42;;
37341;SDS011;58643;49.052;8.518;2023-02-03T05:23:59;2.67;;;1.50;;
37341;SDS011;58643;49.052;8.518;2023-02-03T05:26:24;6.35;;;1.60;;
37341;SDS011;58643;49.052;8.518;2023-02-03T05:28:50;3.88;;;1.92;;
37341;SDS011;58643;49.052;8.518;2023-02-03T05:31:16;4.18;;;1.50;;
37341;SDS011;58643;49.052;8.518;2023-02-03T05:33:41;4.40;;;1.63;;
37341;SDS011;58643;49.052;8.518;2023-02-03T05:36:07;5.53;;;1.90;;
37341;SDS011;58643;49.052;8.518;2023-02-03T05:38:33;4.20;;;1.85;;
37341;SDS011;58643;49.052;8.518;2023-02-03T05:40:59;6.10;;;1.75;;
37341;SDS011;58643;49.052;8.518;2023-02-03T05:43:43;5.55;;;2.10;;
37341;SDS011;58643;49.052;8.518;2023-02-03T05:46:09;2.72;;;1.70;;
37341;SDS011;58643;49.052;8.518;2023-02-03T05:48:34;6.30;;;1.90;;
37341;SDS011;58643;49.052;8.518;2023-02-03T05:51:00;5.03;;;1.75;;
37341;SDS011;58643;49.052;8.518;2023-02-03T05:53:26;3.55;;;1.63;;
37341;SDS011;58643;49.052;8.518;2023-02-03T05:55:52;3.95;;;2.17;;
37341;SDS011;58643;49.052;8.518;2023-02-03T05:58:17;4.43;;;1.77;;
37341;SDS011;58643;49.052;8.518;2023-02-03T06:00:43;3.13;;;1.60;;
37341;SDS011;58643;49.052;8.518;2023-02-03T06:03:09;4.22;;;1.90;;
37341;SDS011;58643;49.052;8.518;2023-02-03T06:05:35;3.47;;;1.65;;
37341;SDS011;58643;49.052;8.518;2023-02-03T06:08:05;5.43;;;1.70;;
37341;SDS011;58643;49.052;8.518;2023-02-03T06:13:06;4.60;;;1.88;;
37341;SDS011;58643;49.052;8.518;2023-02-03T06:15:36;3.08;;;1.65;;
37341;SDS011;58643;49.052;8.518;2023-02-03T06:18:01;3.38;;;1.75;;
37341;SDS011;58643;49.052;8.518;2023-02-03T06:20:27;5.32;;;1.60;;
37341;SDS011;58643;49.052;8.518;2023-02-03T06:22:53;5.43;;;2.25;;
37341;SDS011;58643;49.052;8.518;2023-02-03T06:25:19;3.67;;;1.70;;
37341;SDS011;58643;49.052;8.518;2023-02-03T06:27:44;4.10;;;1.83;;
37341;SDS011;58643;49.052;8.518;2023-02-03T06:30:10;4.55;;;1.98;;
37341;SDS011;58643;49.052;8.518;2023-02-03T06:32:36;5.47;;;1.98;;
37341;SDS011;58643;49.052;8.518;2023-02-03T06:35:02;5.18;;;1.92;;
37341;SDS011;58643;49.052;8.518;2023-02-03T06:37:28;3.00;;;1.27;;
37341;SDS011;58643;49.052;8.518;2023-02-03T06:39:53;7.10;;;1.80;;
37341;SDS011;58643;49.052;8.518;2023-02-03T06:42:19;3.00;;;1.90;;
37341;SDS011;58643;49.052;8.518;2023-02-03T06:44:44;4.82;;;2.10;;
37341;SDS011;58643;49.052;8.518;2023-02-03T06:47:10;4.00;;;1.60;;
37341;SDS011;58643;49.052;8.518;2023-02-03T06:49:36;5.90;;;1.83;;
37341;SDS011;58643;49.052;8.518;2023-02-03T06:52:01;5.28;;;1.95;;
37341;SDS011;58643;49.052;8.518;2023-02-03T06:54:27;5.88;;;1.65;;
37341;SDS011;58643;49.052;8.518;2023-02-03T06:56:52;4.70;;;1.83;;
37341;SDS011;58643;49.052;8.518;2023-02-03T06:59:18;5.25;;;1.85;;
37341;SDS011;58643;49.052;8.518;2023-02-03T07:01:43;4.68;;;1.92;;
37341;SDS011;58643;49.052;8.518;2023-02-03T07:04:09;3.53;;;1.58;;
37341;SDS011;58643;49.052;8.518;2023-02-03T07:06:35;4.57;;;2.10;;
37341;SDS011;58643;49.052;8.518;2023-02-03T07:09:01;7.50;;;1.42;;
37341;SDS011;58643;49.052;8.518;2023-02-03T07:11:28;4.32;;;2.00;;
37341;SDS011;58643;49.052;8.518;2023-02-03T07:13:54;1.75;;;1.23;;
37341;SDS011;58643;49.052;8.518;2023-02-03T07:16:20;4.20;;;1.80;;
37341;SDS011;58643;49.052;8.518;2023-02-03T07:18:45;6.82;;;2.05;;
37341;SDS011;58643;49.052;8.518;2023-02-03T07:21:11;6.35;;;2.13;;
37341;SDS011;58643;49.052;8.518;2023-02-03T07:23:37;3.67;;;2.30;;
37341;SDS011;58643;49.052;8.518;2023-02-03T07:26:03;4.53;;;1.98;;
37341;SDS011;58643;49.052;8.518;2023-02-03T07:28:30;5.95;;;1.95;;
37341;SDS011;58643;49.052;8.518;2023-02-03T07:30:57;3.03;;;1.75;;
37341;SDS011;58643;49.052;8.518;2023-02-03T07:33:22;7.93;;;2.08;;
37341;SDS011;58643;49.052;8.518;2023-02-03T07:35:51;6.65;;;2.08;;
37341;SDS011;58643;49.052;8.518;2023-02-03T07:38:18;5.68;;;2.40;;
37341;SDS011;58643;49.052;8.518;2023-02-03T07:40:43;6.38;;;2.10;;
37341;SDS011;58643;49.052;8.518;2023-02-03T07:43:09;5.95;;;2.40;;
37341;SDS011;58643;49.052;8.518;2023-02-03T07:45:34;5.22;;;2.10;;
37341;SDS011;58643;49.052;8.518;2023-02-03T07:48:00;4.53;;;1.77;;
37341;SDS011;58643;49.052;8.518;2023-02-03T07:50:26;5.30;;;2.13;;
37341;SDS011;58643;49.052;8.518;2023-02-03T07:52:51;4.15;;;2.40;;
37341;SDS011;58643;49.052;8.518;2023-02-03T07:55:17;4.68;;;2.45;;
37341;SDS011;58643;49.052;8.518;2023-02-03T07:57:42;5.10;;;2.33;;
37341;SDS011;58643;49.052;8.518;2023-02-03T08:00:12;6.85;;;2.45;;
37341;SDS011;58643;49.052;8.518;2023-02-03T08:02:39;4.10;;;2.47;;
37341;SDS011;58643;49.052;8.518;2023-02-03T08:05:06;7.00;;;2.65;;
37341;SDS011;58643;49.052;8.518;2023-02-03T08:07:31;7.25;;;2.13;;
37341;SDS011;58643;49.052;8.518;2023-02-03T08:09:57;9.48;;;2.75;;
37341;SDS011;58643;49.052;8.518;2023-02-03T08:12:22;8.35;;;2.50;;
37341;SDS011;58643;49.052;8.518;2023-02-03T08:14:48;8.32;;;1.98;;
37341;SDS011;58643;49.052;8.518;2023-02-03T08:17:14;5.65;;;2.70;;
37341;SDS011;58643;49.052;8.518;2023-02-03T08:19:39;6.70;;;2.85;;
37341;SDS011;58643;49.052;8.518;2023-02-03T08:22:05;10.60;;;2.75;;
37341;SDS011;58643;49.052;8.518;2023-02-03T08:24:30;7.13;;;2.45;;
37341;SDS011;58643;49.052;8.518;2023-02-03T08:26:56;8.02;;;3.10;;
37341;SDS011;58643;49.052;8.518;2023-02-03T08:29:21;6.38;;;2.08;;
37341;SDS011;58643;49.052;8.518;2023-02-03T08:31:47;7.35;;;2.28;;
37341;SDS011;58643;49.052;8.518;2023-02-03T08:34:13;14.35;;;4.25;;
37341;SDS011;58643;49.052;8.518;2023-02-03T08:36:38;4.88;;;2.17;;
37341;SDS011;58643;49.052;8.518;2023-02-03T08:39:04;7.65;;;2.28;;
37341;SDS011;58643;49.052;8.518;2023-02-03T08:41:30;6.97;;;2.58;;
37341;SDS011;58643;49.052;8.518;2023-02-03T08:43:57;3.30;;;1.67;;
37341;SDS011;58643;49.052;8.518;2023-02-03T08:46:23;7.50;;;2.60;;
37341;SDS011;58643;49.052;8.518;2023-02-03T08:48:49;4.47;;;1.92;;
37341;SDS011;58643;49.052;8.518;2023-02-03T08:51:16;7.45;;;2.50;;
37341;SDS011;58643;49.052;8.518;2023-02-03T08:53:43;3.15;;;1.80;;
37341;SDS011;58643;49.052;8.518;2023-02-03T08:56:09;6.03;;;2.70;;
37341;SDS011;58643;49.052;8.518;2023-02-03T08:58:36;7.90;;;2.72;;
37341;SDS011;58643;49.052;8.518;2023-02-03T09:01:06;7.50;;;2.00;;
37341;SDS011;58643;49.052;8.518;2023-02-03T09:03:37;4.22;;;2.20;;
37341;SDS011;58643;49.052;8.518;2023-02-03T09:06:03;4.25;;;1.88;;
37341;SDS011;58643;49.052;8.518;2023-02-03T09:08:29;6.78;;;2.50;;
37341;SDS011;58643;49.052;8.518;2023-02-03T09:10:55;7.45;;;2.05;;
37341;SDS011;58643;49.052;8.518;2023-02-03T09:13:21;6.75;;;2.60;;
37341;SDS011;58643;49.052;8.518;2023-02-03T09:15:47;8.82;;;2.50;;
37341;SDS011;58643;49.052;8.518;2023-02-03T09:18:12;6.10;;;2.63;;
37341;SDS011;58643;49.052;8.518;2023-02-03T09:20:38;4.18;;;2.05;;
37341;SDS011;58643;49.052;8.518;2023-02-03T09:23:04;7.57;;;2.25;;
37341;SDS011;58643;49.052;8.518;2023-02-03T09:25:29;6.00;;;1.70;;
37341;SDS011;58643;49.052;8.518;2023-02-03T09:27:55;2.97;;;1.50;;
37341;SDS011;58643;49.052;8.518;2023-02-03T09:30:20;7.00;;;1.70;;
37341;SDS011;58643;49.052;8.518;2023-02-03T09:32:46;2.80;;;1.80;;
37341;SDS011;58643;49.052;8.518;2023-02-03T09:35:18;4.47;;;1.85;;
37341;SDS011;58643;49.052;8.518;2023-02-03T09:37:44;5.75;;;2.92;;
37341;SDS011;58643;49.052;8.518;2023-02-03T09:40:11;3.95;;;2.13;;
37341;SDS011;58643;49.052;8.518;2023-02-03T09:42:52;6.38;;;2.63;;
37341;SDS011;58643;49.052;8.518;2023-02-03T09:45:37;6.38;;;2.47;;
37341;SDS011;58643;49.052;8.518;2023-02-03T09:51:01;5.93;;;2.88;;
37341;SDS011;58643;49.052;8.518;2023-02-03T09:55:54;5.90;;;3.20;;
37341;SDS011;58643;49.052;8.518;2023-02-03T10:01:47;7.47;;;2.75;;
37341;SDS011;58643;49.052;8.518;2023-02-03T10:04:55;7.93;;;2.25;;
37341;SDS011;58643;49.052;8.518;2023-02-03T10:13:04;6.55;;;2.50;;
37341;SDS011;58643;49.052;8.518;2023-02-03T10:15:55;4.68;;;2.83;;
37341;SDS011;58643;49.052;8.518;2023-02-03T10:19:03;4.60;;;2.35;;
37341;SDS011;58643;49.052;8.518;2023-02-03T10:28:18;6.83;;;2.87;;
37341;SDS011;58643;49.052;8.518;2023-02-03T10:31:00;4.57;;;2.33;;
37341;SDS011;58643;49.052;8.518;2023-02-03T10:34:13;7.95;;;2.90;;
37341;SDS011;58643;49.052;8.518;2023-02-03T10:40:03;5.63;;;2.65;;
37341;SDS011;58643;49.052;8.518;2023-02-03T10:42:47;5.63;;;2.53;;
37341;SDS011;58643;49.052;8.518;2023-02-03T10:45:37;10.77;;;2.17;;
37341;SDS011;58643;49.052;8.518;2023-02-03T10:48:15;7.15;;;2.20;;
37341;SDS011;58643;49.052;8.518;2023-02-03T10:53:58;5.75;;;2.30;;
37341;SDS011;58643;49.052;8.518;2023-02-03T10:56:53;3.70;;;1.35;;
37341;SDS011;58643;49.052;8.518;2023-02-03T10:59:47;5.00;;;2.05;;
37341;SDS011;58643;49.052;8.518;2023-02-03T11:03:02;4.63;;;2.22;;
37341;SDS011;58643;49.052;8.518;2023-02-03T11:06:21;5.50;;;2.28;;
37341;SDS011;58643;49.052;8.518;2023-02-03T11:12:02;4.35;;;2.20;;
37341;SDS011;58643;49.052;8.518;2023-02-03T11:17:50;3.30;;;1.73;;
37341;SDS011;58643;49.052;8.518;2023-02-03T11:20:18;6.03;;;2.33;;
37341;SDS011;58643;49.052;8.518;2023-02-03T11:22:44;7.65;;;1.85;;
37341;SDS011;58643;49.052;8.518;2023-02-03T11:25:23;5.10;;;2.00;;
37341;SDS011;58643;49.052;8.518;2023-02-03T11:27:53;5.18;;;2.03;;
37341;SDS011;58643;49.052;8.518;2023-02-03T11:30:23;6.20;;;1.92;;
37341;SDS011;58643;49.052;8.518;2023-02-03T11:32:51;4.47;;;2.17;;
37341;SDS011;58643;49.052;8.518;2023-02-03T11:35:24;4.43;;;2.03;;
37341;SDS011;58643;49.052;8.518;2023-02-03T11:37:55;5.85;;;2.10;;
37341;SDS011;58643;49.052;8.518;2023-02-03T11:45:24;4.25;;;2.35;;
37341;SDS011;58643;49.052;8.518;2023-02-03T11:48:01;6.30;;;2.15;;
37341;SDS011;58643;49.052;8.518;2023-02-03T11:51:02;5.90;;;1.83;;
37341;SDS011;58643;49.052;8.518;2023-02-03T12:04:13;4.35;;;2.00;;
37341;SDS011;58643;49.052;8.518;2023-02-03T12:09:32;6.90;;;1.70;;
37341;SDS011;58643;49.052;8.518;2023-02-03T12:12:04;2.58;;;1.42;;
37341;SDS011;58643;49.052;8.518;2023-02-03T12:22:46;2.42;;;1.13;;
37341;SDS011;58643;49.052;8.518;2023-02-03T12:25:39;4.35;;;2.15;;
37341;SDS011;58643;49.052;8.518;2023-02-03T12:34:03;1.63;;;0.80;;
37341;SDS011;58643;49.052;8.518;2023-02-03T12:39:33;2.35;;;1.00;;
37341;SDS011;58643;49.052;8.518;2023-02-03T12:44:49;7.55;;;3.17;;
37341;SDS011;58643;49.052;8.518;2023-02-03T12:47:22;3.13;;;1.45;;
37341;SDS011;58643;49.052;8.518;2023-02-03T12:52:36;1.40;;;1.00;;
37341;SDS011;58643;49.052;8.518;2023-02-03T12:58:05;1.98;;;0.90;;
37341;SDS011;58643;49.052;8.518;2023-02-03T13:03:15;2.58;;;0.93;;
37341;SDS011;58643;49.052;8.518;2023-02-03T13:05:53;1.08;;;0.90;;
37341;SDS011;58643;49.052;8.518;2023-02-03T13:11:24;1.10;;;1.00;;
37341;SDS011;58643;49.052;8.518;2023-02-03T13:14:12;2.47;;;1.20;;
37341;SDS011;58643;49.052;8.518;2023-02-03T13:16:42;1.50;;;0.85;;
37341;SDS011;58643;49.052;8.518;2023-02-03T13:19:13;4.85;;;1.20;;
37341;SDS011;58643;49.052;8.518;2023-02-03T13:21:49;1.20;;;1.00;;
37341;SDS011;58643;49.052;8.518;2023-02-03T13:24:15;3.35;;;1.15;;
37341;SDS011;58643;49.052;8.518;2023-02-03T13:32:18;1.40;;;0.80;;
37341;SDS011;58643;49.052;8.518;2023-02-03T13:38:21;1.60;;;0.80;;
37341;SDS011;58643;49.052;8.518;2023-02-03T13:43:38;2.03;;;1.17;;
37341;SDS011;58643;49.052;8.518;2023-02-03T13:46:17;2.05;;;0.93;;
37341;SDS011;58643;49.052;8.518;2023-02-03T13:48:46;2.20;;;1.00;;
37341;SDS011;58643;49.052;8.518;2023-02-03T13:51:13;1.98;;;1.05;;
37341;SDS011;58643;49.052;8.518;2023-02-03T13:53:45;0.70;;;0.70;;
37341;SDS011;58643;49.052;8.518;2023-02-03T13:56:22;1.33;;;0.90;;
37341;SDS011;58643;49.052;8.518;2023-02-03T14:01:37;1.70;;;0.90;;
37341;SDS011;58643;49.052;8.518;2023-02-03T14:18:00;1.35;;;1.08;;
37341;SDS011;58643;49.052;8.518;2023-02-03T14:20:32;1.35;;;0.75;;
37341;SDS011;58643;49.052;8.518;2023-02-03T14:22:52;1.35;;;0.85;;
37341;SDS011;58643;49.052;8.518;2023-02-03T14:25:18;1.20;;;0.80;;
37341;SDS011;58643;49.052;8.518;2023-02-03T14:27:45;0.60;;;0.60;;
37341;SDS011;58643;49.052;8.518;2023-02-03T14:30:13;0.93;;;0.75;;
37341;SDS011;58643;49.052;8.518;2023-02-03T14:32:50;1.00;;;0.82;;
37341;SDS011;58643;49.052;8.518;2023-02-03T14:35:19;1.50;;;0.90;;
37341;SDS011;58643;49.052;8.518;2023-02-03T14:38:21;1.48;;;0.82;;
37341;SDS011;58643;49.052;8.518;2023-02-03T14:54:45;4.57;;;2.03;;
37341;SDS011;58643;49.052;8.518;2023-02-03T14:57:34;1.10;;;0.65;;
37341;SDS011;58643;49.052;8.518;2023-02-03T15:05:50;1.67;;;1.10;;
37341;SDS011;58643;49.052;8.518;2023-02-03T15:11:27;4.03;;;1.00;;
37341;SDS011;58643;49.052;8.518;2023-02-03T15:13:56;1.60;;;0.90;;
37341;SDS011;58643;49.052;8.518;2023-02-03T15:16:58;0.73;;;0.68;;
37341;SDS011;58643;49.052;8.518;2023-02-03T15:19:38;2.35;;;1.00;;
37341;SDS011;58643;49.052;8.518;2023-02-03T15:22:18;1.02;;;0.85;;
37341;SDS011;58643;49.052;8.518;2023-02-03T15:24:56;1.95;;;1.08;;
37341;SDS011;58643;49.052;8.518;2023-02-03T15:27:29;2.17;;;0.90;;
37341;SDS011;58643;49.052;8.518;2023-02-03T15:29:56;2.08;;;0.80;;
37341;SDS011;58643;49.052;8.518;2023-02-03T15:32:24;1.88;;;1.10;;
37341;SDS011;58643;49.052;8.518;2023-02-03T15:34:54;0.80;;;0.80;;
37341;SDS011;58643;49.052;8.518;2023-02-03T15:37:29;2.55;;;0.88;;
37341;SDS011;58643;49.052;8.518;2023-02-03T15:42:41;2.65;;;0.90;;
37341;SDS011;58643;49.052;8.518;2023-02-03T15:50:28;1.17;;;0.80;;
37341;SDS011;58643;49.052;8.518;2023-02-03T15:53:47;1.90;;;0.93;;
37341;SDS011;58643;49.052;8.518;2023-02-03T15:56:10;2.00;;;0.98;;
37341;SDS011;58643;49.052;8.518;2023-02-03T15:58:50;1.42;;;1.00;;
37341;SDS011;58643;49.052;8.518;2023-02-03T16:01:18;1.55;;;1.10;;
37341;SDS011;58643;49.052;8.518;2023-02-03T16:03:48;1.17;;;1.08;;
37341;SDS011;58643;49.052;8.518;2023-02-03T16:06:23;2.17;;;1.08;;
37341;SDS011;58643;49.052;8.518;2023-02-03T16:09:30;1.98;;;1.27;;
37341;SDS011;58643;49.052;8.518;2023-02-03T16:12:04;2.55;;;1.50;;
37341;SDS011;58643;49.052;8.518;2023-02-03T16:14:41;1.98;;;1.35;;
37341;SDS011;58643;49.052;8.518;2023-02-03T16:17:21;1.95;;;1.40;;
37341;SDS011;58643;49.052;8.518;2023-02-03T16:20:09;2.28;;;1.63;;
37341;SDS011;58643;49.052;8.518;2023-02-03T16:25:21;3.15;;;1.58;;
37341;SDS011;58643;49.052;8.518;2023-02-03T16:27:56;2.55;;;1.90;;
37341;SDS011;58643;49.052;8.518;2023-02-03T16:31:00;3.78;;;1.90;;
37341;SDS011;58643;49.052;8.518;2023-02-03T16:34:11;4.32;;;2.17;;
37341;SDS011;58643;49.052;8.518;2023-02-03T16:36:59;3.25;;;1.55;;
37341;SDS011;58643;49.052;8.518;2023-02-03T16:39:43;3.20;;;1.80;;
37341;SDS011;58643;49.052;8.518;2023-02-03T16:42:35;2.85;;;1.80;;
37341;SDS011;58643;49.052;8.518;2023-02-03T16:45:21;4.65;;;1.90;;
37341;SDS011;58643;49.052;8.518;2023-02-03T16:48:07;3.22;;;1.40;;
37341;SDS011;58643;49.052;8.518;2023-02-03T16:50:53;2.67;;;1.23;;
37341;SDS011;58643;49.052;8.518;2023-02-03T16:53:24;3.15;;;1.13;;
37341;SDS011;58643;49.052;8.518;2023-02-03T16:55:52;2.67;;;1.33;;
37341;SDS011;58643;49.052;8.518;2023-02-03T16:58:20;3.42;;;1.48;;
37341;SDS011;58643;49.052;8.518;2023-02-03T17:00:47;1.23;;;1.10;;
37341;SDS011;58643;49.052;8.518;2023-02-03T17:03:18;1.92;;;1.20;;
37341;SDS011;58643;49.052;8.518;2023-02-03T17:05:46;1.80;;;1.20;;
37341;SDS011;58643;49.052;8.518;2023-02-03T17:08:12;2.13;;;1.23;;
37341;SDS011;58643;49.052;8.518;2023-02-03T17:10:40;1.40;;;1.10;;
37341;SDS011;58643;49.052;8.518;2023-02-03T17:13:07;3.28;;;1.40;;
37341;SDS011;58643;49.052;8.518;2023-02-03T17:15:33;2.13;;;1.40;;
37341;SDS011;58643;49.052;8.518;2023-02-03T17:18:03;1.77;;;1.20;;
37341;SDS011;58643;49.052;8.518;2023-02-03T17:20:29;4.18;;;1.67;;
37341;SDS011;58643;49.052;8.518;2023-02-03T17:22:54;3.63;;;1.25;;
37341;SDS011;58643;49.052;8.518;2023-02-03T17:25:20;3.00;;;1.25;;
37341;SDS011;58643;49.052;8.518;2023-02-03T17:27:46;1.88;;;1.30;;
37341;SDS011;58643;49.052;8.518;2023-02-03T17:30:12;3.03;;;1.40;;
37341;SDS011;58643;49.052;8.518;2023-02-03T17:32:38;4.03;;;1.50;;
37341;SDS011;58643;49.052;8.518;2023-02-03T17:35:04;3.53;;;1.50;;
37341;SDS011;58643;49.052;8.518;2023-02-03T17:37:32;2.22;;;1.20;;
37341;SDS011;58643;49.052;8.518;2023-02-03T17:39:59;2.38;;;1.60;;
37341;SDS011;58643;49.052;8.518;2023-02-03T17:42:24;2.47;;;1.42;;
37341;SDS011;58643;49.052;8.518;2023-02-03T17:44:50;3.38;;;1.48;;
37341;SDS011;58643;49.052;8.518;2023-02-03T17:47:16;1.65;;;1.00;;
37341;SDS011;58643;49.052;8.518;2023-02-03T17:49:42;2.53;;;1.60;;
37341;SDS011;58643;49.052;8.518;2023-02-03T17:52:08;2.03;;;1.30;;
37341;SDS011;58643;49.052;8.518;2023-02-03T17:54:35;2.88;;;1.55;;
37341;SDS011;58643;49.052;8.518;2023-02-03T17:57:00;1.88;;;1.70;;
37341;SDS011;58643;49.052;8.518;2023-02-03T17:59:26;2.97;;;1.70;;
37341;SDS011;58643;49.052;8.518;2023-02-03T18:01:52;2.97;;;1.55;;